This is the latest recevied weather packets stored in our database for station/object E20TWR-1. If no packets are shown the sender has not sent any weather packets the latest 10 day(s).
| Time | Temp. | Humidity | Pressure | Rain* | Wind** | Luminosity | Snow |
|---|---|---|---|---|---|---|---|
| 1777507530 | 37.78° C | 47% | 1010 hPa | - | - | 0 W/m² | - |
| 1777506905 | 37.22° C | 48% | 1010 hPa | - | - | 0 W/m² | - |
| 1777506279 | 37.22° C | 48% | 1010 hPa | - | - | 0 W/m² | - |
| 1777505653 | 37.22° C | 49% | 1009 hPa | - | - | 0 W/m² | - |
| 1777505027 | 37.22° C | 49% | 1009 hPa | - | - | 0 W/m² | - |
| 1777504402 | 37.22° C | 50% | 1009 hPa | - | - | 0 W/m² | - |
| 1777503777 | 37.22° C | 49% | 1009 hPa | - | - | 0 W/m² | - |
| 1777503151 | 37.22° C | 49% | 1009 hPa | - | - | 0 W/m² | - |
| 1777502527 | 36.67° C | 50% | 1009 hPa | - | - | 0 W/m² | - |
| 1777501901 | 36.67° C | 50% | 1008 hPa | - | - | 0 W/m² | - |
| 1777501275 | 36.11° C | 51% | 1008 hPa | - | - | 0 W/m² | - |
| 1777500649 | 35.56° C | 52% | 1008 hPa | - | - | 0 W/m² | - |
| 1777500024 | 34.44° C | 54% | 1008 hPa | - | - | 0 W/m² | - |
| 1777499397 | 32.22° C | 57% | 1008 hPa | - | - | 0 W/m² | - |
| 1777472062 | 40.56° C | 34% | 1007 hPa | - | - | 0 W/m² | - |
| 1777471435 | 40.56° C | 34% | 1007 hPa | - | - | 0 W/m² | - |
| 1777470807 | 40.56° C | 34% | 1007 hPa | - | - | 0 W/m² | - |
| 1777470180 | 40.56° C | 34% | 1007 hPa | - | - | 0 W/m² | - |
| 1777469553 | 41.11° C | 34% | 1006 hPa | - | - | 0 W/m² | - |
| 1777468925 | 41.11° C | 34% | 1006 hPa | - | - | 0 W/m² | - |
| 1777468299 | 41.11° C | 34% | 1006 hPa | - | - | 0 W/m² | - |
| 1777467671 | 41.11° C | 34% | 1006 hPa | - | - | 0 W/m² | - |
| 1777467043 | 41.11° C | 34% | 1006 hPa | - | - | 0 W/m² | - |
| 1777466417 | 41.11° C | 35% | 1006 hPa | - | - | 0 W/m² | - |
| 1777465790 | 40.56° C | 35% | 1006 hPa | - | - | 0 W/m² | - |
* Rain since midnight (hover to see other rain measurements)
** Current wind speed in m/s (hover to see current wind gust speed)